Archival Weather

Snohomish County (Paine Fld)

Everett, Washington (KPAE)

Report from: Sunday, November 19, 2023 4:53 AM PST
Current time: Sunday, June 16, 2024 11:57 PM PDT

Current weather – Weather history – Daily summaries
Weather forecast

Temperature7.8°C (46.0°F)
Wind chill5.5°C (41.9°F)
Dew point6.1°C (43.0°F)
Winds 7 kts (3.6 m/s, 8.1 mph) South-Southeast (150°)
Visibility9 mi. (14.5 km)
Clouds Scattered clouds 2,500 ft. (762 m)
Ceiling: Overcast 3,400 ft. (1,036 m)
Altimeter30.00 in.Hg (1016 mB)
Precipitiation0.02 in. (1 mm)
Precip. events Rain ended 12:26 PM
Relative humidity89 %
Density altitude-819 ft. (-250 m)
Sea-level pressure101.6 kPa (1016 mB, 30.00 in.Hg)
Remarks Fully automated report
Automated weather observing station with precipitation discriminator
Flight conditions Visual Meteorological Conditions
Raw dataKPAE 191253Z AUTO 15007KT 9SM SCT025 OVC034 08/06 A3000 RMK AO2 RAE26 SLP159 P0002 T00780061
An error has occurred. This application may no longer respond until reloaded. Reload 🗙